createdAt,value
2023-09-27T00:01:12.343Z,69.97
2023-09-27T00:04:36.830Z,70.60
2023-09-27T00:08:00.814Z,71.73
2023-09-27T00:11:25.711Z,71.74
2023-09-27T00:14:50.774Z,71.33
2023-09-27T00:18:16.559Z,72.19
2023-09-27T00:21:40.645Z,71.30
2023-09-27T00:25:06.234Z,71.45
2023-09-27T00:28:30.355Z,71.34
2023-09-27T00:31:56.263Z,72.31
2023-09-27T00:35:24.331Z,72.52
2023-09-27T00:38:49.237Z,72.62
2023-09-27T00:42:14.550Z,72.28
2023-09-27T00:45:38.779Z,71.36
2023-09-27T00:49:04.191Z,72.34
2023-09-27T00:52:28.487Z,71.94
2023-09-27T00:55:52.203Z,72.16
2023-09-27T00:59:16.918Z,71.28
2023-09-27T01:02:41.662Z,72.19
2023-09-27T01:06:07.337Z,72.70
2023-09-27T01:09:31.903Z,72.68
2023-09-27T01:12:56.401Z,72.34
2023-09-27T01:16:20.477Z,73.59
2023-09-27T01:19:44.811Z,73.59
2023-09-27T01:23:09.752Z,73.25
2023-09-27T01:26:34.262Z,72.99
2023-09-27T01:29:58.088Z,73.33
2023-09-27T01:33:22.727Z,73.11
2023-09-27T01:36:46.259Z,73.82
2023-09-27T01:40:17.843Z,73.40
2023-09-27T01:43:41.598Z,74.57
2023-09-27T01:47:06.127Z,74.41
2023-09-27T01:50:30.344Z,75.51
2023-09-27T01:53:55.459Z,74.97
2023-09-27T01:57:20.754Z,75.97
2023-09-27T02:00:45.012Z,76.21
2023-09-27T02:04:09.462Z,75.39
2023-09-27T02:07:33.519Z,75.12
2023-09-27T02:10:58.128Z,75.93
2023-09-27T02:14:23.647Z,75.49
2023-09-27T02:17:47.793Z,75.96
2023-09-27T02:21:12.168Z,76.63
2023-09-27T02:24:36.203Z,77.51
2023-09-27T02:28:01.204Z,77.39
2023-09-27T02:31:26.971Z,78.33
2023-09-27T02:34:51.371Z,79.17
2023-09-27T02:38:15.610Z,79.63
2023-09-27T02:41:41.283Z,79.39
2023-09-27T02:45:05.304Z,80.63
2023-09-27T02:48:31.504Z,82.00
2023-09-27T02:51:55.584Z,82.24
2023-09-27T02:55:19.867Z,83.09
2023-09-27T02:58:46.517Z,82.19
2023-09-27T03:02:11.107Z,82.74
2023-09-27T03:05:40.155Z,83.60
2023-09-27T03:09:05.336Z,83.90
2023-09-27T03:12:29.821Z,83.84
2023-09-27T03:16:00.118Z,83.71
2023-09-27T03:19:24.652Z,83.39
2023-09-27T03:22:50.730Z,82.67
2023-09-27T03:26:14.507Z,82.95
2023-09-27T03:29:38.590Z,82.61
2023-09-27T03:33:02.669Z,81.25
2023-09-27T03:36:26.964Z,82.21
2023-09-27T03:39:54.278Z,83.14
2023-09-27T03:43:18.669Z,82.98
2023-09-27T03:46:42.868Z,83.46
2023-09-27T03:50:08.683Z,82.86
2023-09-27T03:53:33.982Z,82.67
2023-09-27T03:56:59.445Z,82.24
2023-09-27T04:00:24.875Z,82.54
2023-09-27T04:03:50.531Z,83.17
2023-09-27T04:07:14.842Z,82.41
2023-09-27T04:10:39.897Z,83.14
2023-09-27T04:14:07.338Z,83.57
2023-09-27T04:17:31.666Z,83.38
2023-09-27T04:20:56.183Z,83.18
2023-09-27T04:24:20.836Z,83.29
2023-09-27T04:27:44.902Z,83.26
2023-09-27T04:31:11.024Z,83.44
2023-09-27T04:34:34.699Z,84.56
2023-09-27T04:37:59.202Z,84.50
2023-09-27T04:41:23.161Z,83.83
2023-09-27T04:44:47.651Z,84.55
2023-09-27T04:48:13.296Z,85.54
2023-09-27T04:51:37.579Z,85.35
2023-09-27T04:55:01.915Z,85.79
2023-09-27T04:58:26.519Z,84.99
2023-09-27T05:01:50.888Z,85.35
2023-09-27T05:05:17.858Z,85.54
2023-09-27T05:08:41.954Z,85.92
2023-09-27T05:12:06.587Z,85.00
2023-09-27T05:15:30.374Z,85.43
2023-09-27T05:18:55.097Z,84.99
2023-09-27T05:22:21.294Z,84.51
2023-09-27T05:25:46.252Z,83.94
2023-09-27T05:29:15.350Z,83.30
2023-09-27T05:32:39.569Z,83.24
2023-09-27T05:36:03.253Z,82.64
2023-09-27T05:39:28.788Z,81.96
2023-09-27T05:42:52.672Z,82.19
2023-09-27T05:46:17.603Z,80.94
2023-09-27T05:49:42.816Z,80.97
2023-09-27T05:53:08.140Z,80.06
2023-09-27T05:56:34.555Z,79.69
2023-09-27T06:00:00.366Z,78.73
2023-09-27T06:03:27.588Z,78.13
2023-09-27T06:06:52.604Z,76.79
2023-09-27T06:10:17.122Z,76.24
2023-09-27T06:13:43.461Z,75.16
2023-09-27T06:17:07.837Z,74.38
2023-09-27T06:20:34.172Z,73.23
2023-09-27T06:23:57.967Z,72.04
2023-09-27T06:27:21.797Z,71.98
2023-09-27T06:30:47.209Z,71.20
2023-09-27T06:34:11.539Z,70.14
2023-09-27T06:37:34.992Z,70.17
2023-09-27T06:40:59.052Z,70.20
2023-09-27T06:44:22.260Z,69.98
2023-09-27T06:47:50.906Z,68.36
2023-09-27T06:51:15.159Z,66.70
2023-09-27T06:54:39.748Z,68.56
2023-09-27T06:58:03.488Z,66.51
2023-09-27T07:01:28.225Z,65.33
2023-09-27T07:04:53.479Z,64.78
2023-09-27T07:08:18.167Z,64.45
2023-09-27T07:11:45.132Z,65.21
2023-09-27T07:15:11.411Z,62.95
2023-09-27T07:18:36.763Z,63.13
2023-09-27T07:22:09.625Z,61.50
2023-09-27T07:25:35.842Z,62.08
2023-09-27T07:28:59.299Z,62.19
2023-09-27T07:32:23.509Z,60.30
2023-09-27T07:35:53.752Z,59.39
2023-09-27T07:39:19.237Z,59.68
2023-09-27T07:42:44.352Z,58.14
2023-09-27T07:46:08.953Z,57.07
2023-09-27T07:49:34.153Z,57.63
2023-09-27T07:52:58.211Z,54.87
2023-09-27T07:56:25.795Z,52.08
2023-09-27T07:59:50.814Z,53.16
2023-09-27T08:03:16.269Z,50.97
2023-09-27T08:06:41.198Z,49.93
2023-09-27T08:10:19.161Z,50.40
2023-09-27T08:13:47.662Z,48.26
2023-09-27T08:17:11.824Z,49.11
2023-09-27T08:20:36.504Z,47.59
2023-09-27T08:24:00.625Z,47.88
2023-09-27T08:27:25.171Z,46.44
2023-09-27T08:30:51.269Z,45.62
2023-09-27T08:34:16.068Z,44.79
2023-09-27T08:37:40.002Z,45.16
2023-09-27T08:41:05.392Z,44.82
2023-09-27T08:44:29.779Z,42.90
2023-09-27T08:47:55.859Z,43.16
2023-09-27T08:51:20.463Z,43.87
2023-09-27T08:54:45.019Z,43.24
2023-09-27T08:58:09.761Z,41.75
2023-09-27T09:01:35.796Z,40.68
2023-09-27T09:05:02.176Z,39.29
2023-09-27T09:08:42.764Z,37.50
2023-09-27T09:12:10.530Z,37.95
2023-09-27T09:15:42.870Z,38.05
2023-09-27T09:19:41.142Z,38.19
2023-09-27T09:23:14.125Z,37.05
2023-09-27T09:26:38.773Z,38.55
2023-09-27T09:30:08.215Z,39.22
2023-09-27T09:33:38.340Z,35.43
2023-09-27T09:37:02.676Z,38.05
2023-09-27T09:40:28.482Z,35.89
2023-09-27T09:43:53.405Z,35.56
2023-09-27T09:47:18.970Z,34.11
2023-09-27T09:50:43.537Z,33.39
2023-09-27T09:54:08.317Z,33.94
2023-09-27T09:57:52.338Z,33.34
2023-09-27T10:01:23.431Z,32.11
2023-09-27T10:04:48.324Z,32.28
2023-09-27T10:08:12.156Z,32.07
2023-09-27T10:11:38.255Z,33.72
2023-09-27T10:15:04.140Z,33.28
2023-09-27T10:18:35.167Z,34.47
2023-09-27T10:22:07.413Z,31.82
2023-09-27T10:25:38.399Z,32.40
2023-09-27T10:29:15.580Z,30.77
2023-09-27T10:32:40.503Z,32.30
2023-09-27T10:36:29.270Z,28.19
2023-09-27T10:40:22.521Z,30.13
2023-09-27T10:43:46.285Z,31.30
2023-09-27T10:47:10.770Z,28.79
2023-09-27T10:50:36.163Z,28.58
2023-09-27T10:54:02.020Z,30.50
2023-09-27T10:57:28.887Z,31.79
2023-09-27T11:00:54.491Z,30.40
2023-09-27T11:04:18.287Z,27.46
2023-09-27T11:07:52.667Z,29.98
2023-09-27T11:11:17.793Z,29.17
2023-09-27T11:14:47.350Z,29.79
2023-09-27T11:18:12.342Z,28.03
2023-09-27T11:21:36.749Z,26.39
2023-09-27T11:25:02.324Z,29.36
2023-09-27T11:28:26.903Z,28.11
2023-09-27T11:31:57.843Z,29.37
2023-09-27T11:35:22.223Z,26.20
2023-09-27T11:38:51.798Z,27.69
2023-09-27T11:42:17.731Z,27.62
2023-09-27T11:45:46.059Z,29.54
2023-09-27T11:49:10.004Z,28.00
2023-09-27T11:52:32.753Z,27.25
2023-09-27T11:55:56.961Z,26.92
2023-09-27T11:59:21.113Z,26.70
2023-09-27T12:02:56.426Z,26.79
2023-09-27T12:06:21.186Z,26.31
2023-09-27T12:09:44.026Z,26.78
2023-09-27T12:13:07.393Z,26.07
2023-09-27T12:16:32.460Z,25.71
2023-09-27T12:19:56.115Z,27.39
2023-09-27T12:23:20.072Z,28.36
2023-09-27T12:26:44.670Z,26.70
2023-09-27T12:30:10.059Z,26.12
2023-09-27T12:33:35.791Z,26.54
2023-09-27T12:37:00.025Z,27.61
2023-09-27T12:40:25.874Z,26.11
2023-09-27T12:43:49.710Z,24.15
2023-09-27T12:47:12.955Z,25.45
2023-09-27T12:50:37.582Z,25.77
2023-09-27T12:54:00.706Z,24.74
2023-09-27T12:57:23.671Z,26.08
2023-09-27T13:00:46.932Z,24.58
2023-09-27T13:04:10.690Z,26.04
2023-09-27T13:07:35.426Z,25.62
2023-09-27T13:10:58.474Z,25.42
2023-09-27T13:14:22.208Z,23.83
2023-09-27T13:17:45.353Z,26.40
2023-09-27T13:21:12.345Z,25.02
2023-09-27T13:24:37.071Z,23.49
2023-09-27T13:28:00.237Z,25.01
2023-09-27T13:31:25.033Z,24.50
2023-09-27T13:34:49.365Z,22.38
2023-09-27T13:38:13.030Z,25.30
2023-09-27T13:41:44.177Z,24.31
2023-09-27T13:45:09.115Z,23.63
2023-09-27T13:48:34.370Z,22.10
2023-09-27T13:51:58.411Z,22.07
2023-09-27T13:55:23.454Z,22.06
2023-09-27T13:58:48.792Z,24.73
2023-09-27T14:02:16.170Z,22.87
2023-09-27T14:05:40.520Z,23.53
2023-09-27T14:09:05.314Z,24.69
2023-09-27T14:12:30.134Z,22.84
2023-09-27T14:15:55.927Z,22.64
2023-09-27T14:19:20.974Z,23.80
2023-09-27T14:22:45.806Z,23.14
2023-09-27T14:26:10.817Z,23.77
2023-09-27T14:29:36.495Z,24.84
2023-09-27T14:33:03.984Z,26.11
2023-09-27T14:36:27.067Z,26.24
2023-09-27T14:39:50.183Z,26.05
2023-09-27T14:43:13.751Z,26.17
2023-09-27T14:46:37.842Z,25.82
2023-09-27T14:50:02.328Z,24.59
2023-09-27T14:53:26.100Z,28.05
2023-09-27T14:56:50.104Z,25.83
2023-09-27T15:00:15.039Z,27.15
2023-09-27T15:03:39.344Z,26.89
2023-09-27T15:07:05.645Z,27.08
2023-09-27T15:10:29.579Z,27.16
2023-09-27T15:13:57.694Z,28.26
2023-09-27T15:17:22.236Z,27.29
2023-09-27T15:20:46.781Z,28.85
2023-09-27T15:24:12.801Z,27.32
2023-09-27T15:27:37.167Z,28.37
2023-09-27T15:31:00.958Z,28.53
2023-09-27T15:34:25.415Z,28.83
2023-09-27T15:37:53.716Z,30.02
2023-09-27T15:41:20.013Z,29.37
2023-09-27T15:44:43.929Z,30.48
2023-09-27T15:48:09.262Z,31.00
2023-09-27T15:51:33.303Z,30.44
2023-09-27T15:54:57.595Z,32.46
2023-09-27T15:58:23.364Z,33.06
2023-09-27T16:01:47.391Z,33.00
2023-09-27T16:05:12.407Z,34.08
2023-09-27T16:08:36.091Z,36.06
2023-09-27T16:12:00.477Z,36.40
2023-09-27T16:15:27.433Z,37.26
2023-09-27T16:18:51.522Z,38.60
2023-09-27T16:22:14.994Z,39.84
2023-09-27T16:25:39.724Z,41.79
2023-09-27T16:29:04.285Z,42.79
2023-09-27T16:32:31.000Z,44.20
2023-09-27T16:35:55.940Z,45.66
2023-09-27T16:39:20.746Z,46.46
2023-09-27T16:42:45.648Z,47.18
2023-09-27T16:46:10.454Z,48.17
2023-09-27T16:49:36.381Z,49.66
2023-09-27T16:53:01.034Z,50.71
2023-09-27T16:56:25.639Z,48.70
2023-09-27T16:59:50.689Z,48.93
2023-09-27T17:03:15.495Z,50.58
2023-09-27T17:06:42.617Z,51.24
2023-09-27T17:10:10.625Z,52.27
2023-09-27T17:13:37.470Z,52.36
2023-09-27T17:17:03.953Z,52.99
2023-09-27T17:20:30.790Z,53.88
2023-09-27T17:23:58.842Z,54.38
2023-09-27T17:27:25.794Z,54.52
2023-09-27T17:30:52.668Z,53.50
2023-09-27T17:34:19.348Z,53.64
2023-09-27T17:37:46.313Z,56.28
2023-09-27T17:41:14.318Z,56.19
2023-09-27T17:44:40.541Z,56.37
2023-09-27T17:48:07.957Z,58.60
2023-09-27T17:51:35.569Z,56.60
2023-09-27T17:55:02.970Z,55.42
2023-09-27T17:58:31.454Z,55.57
2023-09-27T18:01:58.880Z,55.91
2023-09-27T18:05:25.582Z,58.37
2023-09-27T18:08:51.258Z,57.93
2023-09-27T18:12:18.279Z,56.98
2023-09-27T18:15:46.216Z,58.41
2023-09-27T18:19:14.373Z,58.67
2023-09-27T18:22:40.728Z,58.25
2023-09-27T18:26:07.152Z,58.19
2023-09-27T18:29:34.245Z,59.32
2023-09-27T18:33:03.272Z,60.57
2023-09-27T18:36:29.234Z,61.56
2023-09-27T18:39:56.034Z,61.77
2023-09-27T18:43:22.925Z,61.65
2023-09-27T18:46:49.259Z,62.13
2023-09-27T18:50:19.908Z,62.40
2023-09-27T18:53:46.194Z,61.50
2023-09-27T18:57:13.282Z,60.17
2023-09-27T19:00:42.974Z,61.11
2023-09-27T19:04:09.647Z,61.02
2023-09-27T19:07:41.182Z,61.04
2023-09-27T19:11:08.485Z,61.72
2023-09-27T19:14:34.380Z,61.66
2023-09-27T19:18:01.276Z,61.80
2023-09-27T19:21:28.510Z,61.24
2023-09-27T19:24:57.264Z,61.13
2023-09-27T19:28:24.964Z,60.73
2023-09-27T19:31:52.196Z,59.97
2023-09-27T19:35:19.847Z,58.76
2023-09-27T19:38:46.347Z,58.04
2023-09-27T19:42:17.092Z,57.84
2023-09-27T19:45:43.243Z,57.58
2023-09-27T19:49:12.938Z,56.81
2023-09-27T19:52:40.294Z,54.94
2023-09-27T19:56:06.789Z,53.26
2023-09-27T19:59:34.272Z,53.12
2023-09-27T20:03:00.314Z,52.13
2023-09-27T20:06:27.322Z,52.22
2023-09-27T20:09:52.224Z,51.46
2023-09-27T20:13:17.698Z,52.00
2023-09-27T20:16:45.351Z,52.07
2023-09-27T20:20:12.380Z,51.63
2023-09-27T20:23:36.211Z,51.75
2023-09-27T20:27:02.819Z,51.66
2023-09-27T20:30:26.935Z,52.34
2023-09-27T20:33:52.828Z,52.06
2023-09-27T20:37:16.582Z,52.58
2023-09-27T20:40:41.172Z,52.97
2023-09-27T20:44:04.953Z,56.50
2023-09-27T20:47:29.400Z,57.86
2023-09-27T20:50:58.595Z,59.38
2023-09-27T20:54:23.186Z,60.50
2023-09-27T20:57:48.943Z,59.94
2023-09-27T21:01:26.281Z,61.06
2023-09-27T21:04:50.460Z,62.84
2023-09-27T21:08:16.858Z,61.90
2023-09-27T21:11:40.583Z,63.11
2023-09-27T21:15:05.195Z,62.40
2023-09-27T21:18:28.822Z,62.94
2023-09-27T21:21:53.471Z,62.91
2023-09-27T21:25:19.275Z,63.55
2023-09-27T21:28:43.796Z,63.14
2023-09-27T21:32:07.627Z,62.88
2023-09-27T21:35:31.990Z,64.11
2023-09-27T21:38:55.975Z,63.30
2023-09-27T21:42:22.209Z,63.98
2023-09-27T21:45:46.431Z,63.20
2023-09-27T21:49:10.675Z,64.16
2023-09-27T21:52:37.457Z,64.27
2023-09-27T21:56:01.891Z,63.00
2023-09-27T21:59:27.390Z,65.01
2023-09-27T22:02:51.908Z,65.10
2023-09-27T22:06:16.959Z,65.97
2023-09-27T22:09:42.267Z,66.69
2023-09-27T22:13:23.024Z,66.99
2023-09-27T22:16:49.621Z,65.69
2023-09-27T22:20:14.242Z,65.06
2023-09-27T22:23:41.747Z,65.33
2023-09-27T22:27:09.418Z,65.13
2023-09-27T22:30:33.346Z,64.79
2023-09-27T22:33:59.268Z,64.47
2023-09-27T22:37:25.667Z,63.88
2023-09-27T22:40:50.355Z,64.19
2023-09-27T22:44:20.866Z,63.82
2023-09-27T22:47:45.881Z,62.52
2023-09-27T22:51:11.209Z,62.77
2023-09-27T22:54:35.817Z,63.06
2023-09-27T22:58:00.049Z,63.41
2023-09-27T23:01:29.613Z,63.68
2023-09-27T23:04:53.576Z,63.66
2023-09-27T23:08:27.761Z,64.86
2023-09-27T23:12:01.637Z,65.85
2023-09-27T23:15:39.488Z,66.40
2023-09-27T23:19:02.362Z,67.70
2023-09-27T23:22:26.777Z,68.28
2023-09-27T23:25:53.833Z,67.61
2023-09-27T23:29:37.520Z,67.60
2023-09-27T23:33:02.922Z,68.25
2023-09-27T23:36:27.702Z,67.83
2023-09-27T23:39:52.110Z,67.36
2023-09-27T23:43:18.050Z,67.47
2023-09-27T23:46:43.324Z,67.37
2023-09-27T23:50:10.238Z,66.92
2023-09-27T23:53:34.567Z,68.24
2023-09-27T23:57:00.416Z,67.99
